Time;durP1;ratioP1;P1;durP2;ratioP2;P2;SDS_P1;SDS_P2;PMS_P1;PMS_P2;Temp;Humidity;BMP_temperature;BMP_pressure;BME280_temperature;BME280_humidity;BME280_pressure;Samples;Min_cycle;Max_cycle;Signal;HPM_P1;HPM_P2
2023/01/26 00:00:26;;;;;;;42.43;13.77;;;;;1.90;96690.00;;;;8330829;28;20547;-87
2023/01/26 00:04:29;;;;;;;39.50;11.90;;;;;2.00;96691.00;;;;8331662;28;20229;-86
2023/01/26 00:08:37;;;;;;;38.37;13.87;;;;;2.00;96673.00;;;;8331157;28;20208;-88
2023/01/26 00:12:44;;;;;;;49.53;14.43;;;;;2.00;96675.00;;;;8331916;28;20601;-88
2023/01/26 00:16:47;;;;;;;38.30;12.10;;;;;2.00;96661.00;;;;8331065;28;20192;-88
2023/01/26 00:20:55;;;;;;;36.50;12.23;;;;;2.00;96667.00;;;;8331336;28;20224;-87
2023/01/26 00:24:58;;;;;;;34.30;11.30;;;;;2.00;96668.00;;;;8330544;28;20630;-89
2023/01/26 00:29:03;;;;;;;34.17;10.87;;;;;1.90;96662.00;;;;8330910;28;20288;-90
2023/01/26 00:33:06;;;;;;;39.67;11.20;;;;;1.90;96645.00;;;;8331009;28;20205;-90
2023/01/26 00:37:09;;;;;;;36.47;11.80;;;;;1.90;96649.00;;;;8330791;28;20201;-91
2023/01/26 00:42:05;;;;;;;41.03;12.37;;;;;1.90;96649.00;;;;8330688;28;20223;-89
2023/01/26 00:45:44;;;;;;;43.27;12.50;;;;;2.00;96648.00;;;;8331637;28;20622;-89
2023/01/26 00:49:47;;;;;;;38.63;12.87;;;;;2.00;96647.00;;;;8331143;28;20608;-88
2023/01/26 00:53:50;;;;;;;39.07;12.03;;;;;1.90;96640.00;;;;8330954;28;20200;-88
2023/01/26 00:57:57;;;;;;;39.23;12.03;;;;;2.00;96643.00;;;;8330611;28;20247;-87
2023/01/26 01:02:02;;;;;;;46.93;12.47;;;;;2.00;96642.00;;;;8330474;28;20221;-87
2023/01/26 01:06:05;;;;;;;41.07;12.37;;;;;1.90;96635.00;;;;8330209;28;20311;-87
2023/01/26 01:10:13;;;;;;;41.17;12.27;;;;;1.70;96630.00;;;;8331101;28;20237;-87
2023/01/26 01:14:18;;;;;;;36.13;12.27;;;;;1.70;96622.00;;;;8326917;28;20197;-87
2023/01/26 01:18:22;;;;;;;42.70;11.73;;;;;1.80;96627.00;;;;8336269;28;20196;-85
2023/01/26 01:22:28;;;;;;;36.33;12.20;;;;;1.90;96623.00;;;;8337858;28;20223;-85
2023/01/26 01:26:31;;;;;;;48.10;12.57;;;;;1.90;96614.00;;;;8336765;28;20688;-86
2023/01/26 01:30:37;;;;;;;36.90;12.50;;;;;1.80;96621.00;;;;8335938;28;20197;-85
2023/01/26 01:34:42;;;;;;;33.07;11.33;;;;;1.80;96613.00;;;;8335537;28;20227;-86
2023/01/26 01:38:48;;;;;;;41.17;12.37;;;;;1.80;96610.00;;;;8335962;28;20191;-85
2023/01/26 01:42:51;;;;;;;38.33;12.17;;;;;1.80;96610.00;;;;8334571;28;20229;-84
2023/01/26 01:46:57;;;;;;;36.87;13.17;;;;;1.80;96601.00;;;;8335821;28;20259;-84
2023/01/26 01:51:17;;;;;;;42.23;12.90;;;;;1.80;96599.00;;;;8333706;28;20631;-84
2023/01/26 01:55:24;;;;;;;39.40;11.87;;;;;1.80;96595.00;;;;8335071;28;20193;-83
2023/01/26 01:59:33;;;;;;;48.60;13.47;;;;;1.80;96584.00;;;;8333158;28;20197;-83
2023/01/26 02:03:37;;;;;;;41.90;12.87;;;;;1.80;96592.00;;;;8334832;28;20224;-84
2023/01/26 02:07:43;;;;;;;43.77;12.57;;;;;1.90;96575.00;;;;8334431;28;20630;-83
2023/01/26 02:11:49;;;;;;;38.37;11.73;;;;;1.90;96574.00;;;;8335386;28;20189;-83
2023/01/26 02:15:53;;;;;;;40.53;12.60;;;;;1.90;96568.00;;;;8333629;28;20298;-83
2023/01/26 02:20:04;;;;;;;41.27;12.40;;;;;1.80;96571.00;;;;8333796;28;20247;-82
2023/01/26 02:24:16;;;;;;;34.17;11.60;;;;;1.80;96565.00;;;;8334572;28;20250;-82
2023/01/26 02:28:24;;;;;;;30.43;10.47;;;;;1.80;96565.00;;;;8333997;28;20292;-81
2023/01/26 02:32:28;;;;;;;30.73;10.47;;;;;1.80;96562.00;;;;8333079;28;20269;-82
2023/01/26 02:36:33;;;;;;;33.10;10.90;;;;;1.90;96553.00;;;;8333791;28;20250;-82
2023/01/26 02:40:40;;;;;;;35.67;11.87;;;;;1.90;96552.00;;;;8333383;28;20193;-83
2023/01/26 02:44:45;;;;;;;30.87;11.10;;;;;1.90;96537.00;;;;8333373;28;20281;-83
2023/01/26 02:53:17;;;;;;;30.07;11.43;;;;;2.00;96541.00;;;;8334507;28;20558;-82
2023/01/26 02:57:24;;;;;;;38.27;13.40;;;;;2.00;96539.00;;;;8331280;28;20253;-83
2023/01/26 03:01:29;;;;;;;33.30;12.53;;;;;1.90;96526.00;;;;8353254;22;20564;-78
2023/01/26 03:05:35;;;;;;;29.87;11.47;;;;;1.80;96528.00;;;;8260399;28;20216;-81
2023/01/26 03:09:39;;;;;;;29.67;11.03;;;;;1.70;96536.00;;;;8270298;28;20214;-80
2023/01/26 03:13:45;;;;;;;41.53;12.27;;;;;1.70;96539.00;;;;8274880;28;20965;-81
2023/01/26 03:17:51;;;;;;;41.37;10.73;;;;;1.70;96537.00;;;;8279521;28;20245;-82
2023/01/26 03:30:57;;;;;;;37.80;11.77;;;;;1.80;96532.00;;;;8275168;28;20294;-80
2023/01/26 03:35:02;;;;;;;36.43;11.37;;;;;1.80;96521.00;;;;8262905;28;20289;-80
2023/01/26 03:41:06;;;;;;;30.67;10.73;;;;;1.80;96522.00;;;;8273137;28;20262;-80
2023/01/26 03:56:48;;;;;;;29.07;10.80;;;;;1.90;96517.00;;;;8259742;28;20298;-78
2023/01/26 04:00:53;;;;;;;31.83;11.00;;;;;1.90;96518.00;;;;8264883;28;20206;-78
2023/01/26 04:09:23;;;;;;;30.27;10.97;;;;;1.80;96520.00;;;;8261605;28;20216;-79
2023/01/26 04:22:13;;;;;;;24.50;9.17;;;;;1.80;96511.00;;;;8279953;28;20329;-77
2023/01/26 04:26:17;;;;;;;30.03;10.03;;;;;1.80;96504.00;;;;8273945;28;20625;-78
2023/01/26 04:30:24;;;;;;;31.93;10.27;;;;;1.80;96512.00;;;;8279467;28;20202;-76
2023/01/26 04:34:31;;;;;;;21.23;9.17;;;;;1.80;96502.00;;;;8275356;28;20207;-78
2023/01/26 04:38:34;;;;;;;30.63;10.07;;;;;1.80;96495.00;;;;8271408;28;20271;-78
2023/01/26 04:42:39;;;;;;;26.80;9.13;;;;;1.80;96497.00;;;;8281311;28;20264;-77
2023/01/26 04:46:47;;;;;;;19.27;7.60;;;;;1.80;96489.00;;;;8275992;28;20194;-75
2023/01/26 04:50:56;;;;;;;20.87;7.63;;;;;1.80;96500.00;;;;8269614;28;20214;-76
2023/01/26 04:54:59;;;;;;;22.87;7.70;;;;;1.60;96492.00;;;;8275925;28;20209;-75
2023/01/26 04:59:07;;;;;;;23.03;8.87;;;;;1.60;96495.00;;;;8285243;28;20231;-76
2023/01/26 05:03:12;;;;;;;20.17;8.37;;;;;1.60;96496.00;;;;8274860;28;20231;-75
2023/01/26 05:07:15;;;;;;;20.90;8.87;;;;;1.60;96498.00;;;;8284686;28;20208;-74
2023/01/26 05:11:22;;;;;;;23.03;8.70;;;;;1.60;96501.00;;;;8278502;28;20621;-75
2023/01/26 05:15:27;;;;;;;24.23;8.70;;;;;1.60;96499.00;;;;8279628;28;20206;-79
2023/01/26 05:19:39;;;;;;;21.97;9.43;;;;;1.60;96496.00;;;;8269742;28;20206;-78
2023/01/26 05:23:46;;;;;;;27.93;9.50;;;;;1.60;96492.00;;;;8270396;28;20238;-78
2023/01/26 05:27:54;;;;;;;23.97;8.70;;;;;1.60;96497.00;;;;8266468;28;20239;-81
2023/01/26 05:31:59;;;;;;;23.23;9.53;;;;;1.70;96497.00;;;;8276667;28;20201;-78
2023/01/26 05:36:07;;;;;;;29.20;10.20;;;;;1.70;96500.00;;;;8273298;28;20216;-77
2023/01/26 05:40:11;;;;;;;26.67;9.37;;;;;1.70;96493.00;;;;8271773;28;20955;-78
2023/01/26 05:44:15;;;;;;;26.73;9.90;;;;;1.60;96497.00;;;;8277172;28;20316;-78
2023/01/26 05:48:27;;;;;;;24.17;9.33;;;;;1.60;96497.00;;;;8274704;28;20216;-78
2023/01/26 05:52:30;;;;;;;26.27;10.30;;;;;1.60;96503.00;;;;8280397;28;20205;-78
2023/01/26 05:56:33;;;;;;;26.37;10.10;;;;;1.60;96500.00;;;;8272206;28;20621;-80
2023/01/26 06:00:40;;;;;;;28.63;10.30;;;;;1.60;96493.00;;;;8271053;28;20200;-80
2023/01/26 06:04:45;;;;;;;24.67;10.43;;;;;1.50;96493.00;;;;8278392;28;20301;-77
2023/01/26 06:08:48;;;;;;;29.70;10.27;;;;;1.50;96501.00;;;;8280377;28;20773;-77
2023/01/26 06:12:51;;;;;;;29.87;11.03;;;;;1.50;96496.00;;;;8277398;28;20896;-78
2023/01/26 06:16:56;;;;;;;27.27;9.63;;;;;1.50;96501.00;;;;8278638;28;20223;-78
2023/01/26 06:21:01;;;;;;;34.90;11.73;;;;;1.50;96510.00;;;;8276241;28;20208;-79
2023/01/26 06:25:07;;;;;;;34.00;11.20;;;;;1.50;96504.00;;;;8283684;28;20225;-78
2023/01/26 06:29:13;;;;;;;31.60;10.63;;;;;1.50;96508.00;;;;8282095;28;20272;-79
2023/01/26 06:33:16;;;;;;;29.53;10.30;;;;;1.60;96496.00;;;;8284994;28;20212;-79
2023/01/26 06:37:20;;;;;;;31.20;12.90;;;;;1.70;96494.00;;;;8284641;28;20544;-78
2023/01/26 06:41:23;;;;;;;24.43;11.77;;;;;1.70;96495.00;;;;8283296;28;20567;-79
2023/01/26 06:45:27;;;;;;;27.83;11.03;;;;;1.70;96491.00;;;;8282260;28;20241;-79
2023/01/26 06:49:30;;;;;;;24.07;9.83;;;;;1.70;96487.00;;;;8272972;28;20210;-79
2023/01/26 06:53:38;;;;;;;23.40;9.73;;;;;1.70;96485.00;;;;8275506;28;20260;-78
2023/01/26 06:57:43;;;;;;;23.50;9.67;;;;;1.80;96480.00;;;;8275920;28;20201;-79
2023/01/26 07:01:51;;;;;;;27.17;9.63;;;;;1.80;96477.00;;;;8273925;28;20264;-79
2023/01/26 07:05:56;;;;;;;25.33;9.07;;;;;1.80;96485.00;;;;8278718;28;20231;-80
2023/01/26 07:10:01;;;;;;;21.97;9.37;;;;;1.80;96490.00;;;;8276020;28;20223;-77
2023/01/26 07:14:08;;;;;;;26.43;10.73;;;;;1.80;96492.00;;;;8275653;28;20215;-79
2023/01/26 07:18:11;;;;;;;25.83;10.17;;;;;1.80;96491.00;;;;8280712;28;20245;-79
2023/01/26 07:22:14;;;;;;;22.90;9.80;;;;;1.80;96480.00;;;;8275513;28;20265;-79
2023/01/26 07:26:19;;;;;;;25.97;10.17;;;;;1.80;96479.00;;;;8276651;28;20288;-78
2023/01/26 07:30:23;;;;;;;32.53;10.63;;;;;1.80;96477.00;;;;8269825;28;20205;-78
2023/01/26 07:34:26;;;;;;;25.87;10.23;;;;;1.80;96485.00;;;;8279478;28;20697;-77
2023/01/26 07:38:29;;;;;;;24.30;10.10;;;;;1.90;96473.00;;;;8278542;28;20209;-77
2023/01/26 07:42:34;;;;;;;25.90;10.00;;;;;1.90;96471.00;;;;8270698;28;20205;-76
2023/01/26 07:46:37;;;;;;;24.50;9.47;;;;;1.90;96484.00;;;;8280605;28;20236;-77
2023/01/26 07:50:44;;;;;;;20.90;9.23;;;;;2.00;96470.00;;;;8271861;28;20268;-76
2023/01/26 07:54:47;;;;;;;24.53;10.00;;;;;2.00;96480.00;;;;8269329;28;20717;-77
2023/01/26 07:58:53;;;;;;;21.70;8.93;;;;;2.00;96474.00;;;;8270961;28;20657;-77
2023/01/26 08:02:56;;;;;;;20.37;8.53;;;;;2.00;96485.00;;;;8276434;28;20239;-77
2023/01/26 08:07:01;;;;;;;23.47;8.57;;;;;2.00;96476.00;;;;8268094;28;20294;-77
2023/01/26 08:11:06;;;;;;;21.07;8.97;;;;;2.00;96475.00;;;;8274731;28;20204;-77
2023/01/26 08:15:13;;;;;;;24.03;8.87;;;;;2.00;96470.00;;;;8273062;28;20195;-77
2023/01/26 08:19:16;;;;;;;21.37;8.97;;;;;2.00;96484.00;;;;8273049;28;20484;-77
2023/01/26 08:23:22;;;;;;;21.33;9.43;;;;;2.10;96477.00;;;;8279191;28;20224;-77
2023/01/26 08:27:25;;;;;;;22.80;9.53;;;;;2.10;96473.00;;;;8279703;28;20194;-77
2023/01/26 08:31:32;;;;;;;25.93;9.07;;;;;2.10;96483.00;;;;8282107;28;20617;-78
2023/01/26 08:35:35;;;;;;;19.10;8.90;;;;;2.10;96485.00;;;;8283227;28;20206;-78
2023/01/26 08:39:38;;;;;;;20.87;8.80;;;;;2.10;96475.00;;;;8280795;28;20367;-78
2023/01/26 08:43:41;;;;;;;20.17;8.57;;;;;2.20;96487.00;;;;8283494;28;20224;-78
2023/01/26 08:47:50;;;;;;;20.50;8.37;;;;;2.20;96478.00;;;;8283138;28;20205;-78
2023/01/26 08:51:53;;;;;;;16.90;7.87;;;;;2.20;96483.00;;;;8279775;28;20272;-79
2023/01/26 08:55:57;;;;;;;17.77;8.03;;;;;2.20;96478.00;;;;8279186;28;20195;-79
2023/01/26 09:00:00;;;;;;;21.60;8.20;;;;;2.20;96476.00;;;;8274511;28;20224;-80
2023/01/26 09:04:07;;;;;;;22.37;8.43;;;;;2.20;96467.00;;;;8283337;28;20237;-79
2023/01/26 09:08:10;;;;;;;19.00;8.00;;;;;2.20;96469.00;;;;8277358;28;20271;-80
2023/01/26 09:12:14;;;;;;;22.00;8.00;;;;;2.30;96469.00;;;;8276379;28;20552;-79
2023/01/26 09:16:20;;;;;;;22.07;8.53;;;;;2.40;96478.00;;;;8279548;28;20718;-81
2023/01/26 09:20:25;;;;;;;19.27;7.23;;;;;2.40;96480.00;;;;8277155;28;20293;-81
2023/01/26 09:24:29;;;;;;;16.83;7.17;;;;;2.40;96465.00;;;;8275297;28;20230;-81
2023/01/26 09:28:33;;;;;;;16.73;7.20;;;;;2.40;96471.00;;;;8283450;28;20222;-82
2023/01/26 09:32:36;;;;;;;19.30;8.00;;;;;2.40;96477.00;;;;8284817;28;20212;-82
2023/01/26 09:36:43;;;;;;;19.20;7.40;;;;;2.40;96476.00;;;;8278544;28;20718;-82
2023/01/26 09:40:56;;;;;;;20.13;7.23;;;;;2.40;96480.00;;;;8276896;28;20201;-81
2023/01/26 09:45:15;;;;;;;16.40;7.23;;;;;2.50;96476.00;;;;8270242;28;20278;-81
2023/01/26 09:49:22;;;;;;;510.80;99.50;;;;;2.50;96471.00;;;;8275467;28;20212;-82
2023/01/26 09:53:33;;;;;;;35.60;12.67;;;;;2.50;96469.00;;;;8274596;28;20292;-81
2023/01/26 09:57:47;;;;;;;16.77;6.77;;;;;2.50;96473.00;;;;8276359;28;20214;-80
2023/01/26 10:01:54;;;;;;;32.53;11.10;;;;;2.50;96466.00;;;;8274920;28;20232;-80
2023/01/26 10:06:04;;;;;;;16.53;7.20;;;;;2.50;96469.00;;;;8278681;28;20225;-82
2023/01/26 10:10:18;;;;;;;20.37;8.20;;;;;2.40;96462.00;;;;8281306;28;20201;-77
2023/01/26 10:14:31;;;;;;;17.20;6.87;;;;;2.20;96451.00;;;;8281098;28;20627;-77
2023/01/26 10:18:36;;;;;;;14.93;6.47;;;;;2.10;96451.00;;;;8270437;28;20208;-79
2023/01/26 10:22:44;;;;;;;17.17;6.63;;;;;2.00;96444.00;;;;8280567;28;20205;-83
2023/01/26 10:27:00;;;;;;;12.90;6.13;;;;;2.00;96451.00;;;;8272427;28;20311;-84
2023/01/26 10:31:05;;;;;;;14.60;6.60;;;;;2.10;96450.00;;;;8273423;28;20209;-84
2023/01/26 10:35:16;;;;;;;13.03;5.97;;;;;2.20;96442.00;;;;8271613;28;20216;-83
2023/01/26 10:39:19;;;;;;;13.87;6.37;;;;;2.30;96449.00;;;;8268981;28;20247;-84
2023/01/26 10:43:24;;;;;;;12.10;5.87;;;;;2.30;96449.00;;;;8273180;28;20208;-83
2023/01/26 10:47:28;;;;;;;11.50;5.63;;;;;2.30;96447.00;;;;8281971;28;20235;-82
2023/01/26 10:51:35;;;;;;;14.03;5.97;;;;;2.50;96446.00;;;;8281791;28;20208;-81
2023/01/26 10:55:38;;;;;;;10.37;5.07;;;;;2.50;96450.00;;;;8285094;28;20204;-81
2023/01/26 10:59:57;;;;;;;12.40;5.20;;;;;2.50;96441.00;;;;8267019;28;20205;-84
2023/01/26 11:04:06;;;;;;;11.27;5.17;;;;;2.40;96428.00;;;;8270403;28;20378;-83
2023/01/26 11:08:32;;;;;;;12.60;5.67;;;;;2.50;96430.00;;;;8275445;28;20223;-83
2023/01/26 11:12:36;;;;;;;8.70;4.93;;;;;2.50;96420.00;;;;8277297;28;20209;-82
2023/01/26 11:16:47;;;;;;;10.57;5.90;;;;;2.50;96424.00;;;;8279240;28;20309;-81
2023/01/26 11:20:57;;;;;;;11.00;5.57;;;;;2.50;96422.00;;;;8271634;28;20199;-81
2023/01/26 11:25:12;;;;;;;15.80;5.93;;;;;2.50;96410.00;;;;8273372;28;20225;-83
2023/01/26 11:29:36;;;;;;;12.17;5.60;;;;;2.40;96405.00;;;;8281415;28;20209;-83
2023/01/26 11:33:49;;;;;;;10.50;5.67;;;;;2.30;96400.00;;;;8272285;28;20209;-82
2023/01/26 11:37:58;;;;;;;13.90;6.50;;;;;2.30;96398.00;;;;8297119;28;20198;-84
2023/01/26 11:42:18;;;;;;;17.17;6.97;;;;;2.20;96403.00;;;;8299072;28;20240;-85
2023/01/26 11:46:54;;;;;;;13.40;5.73;;;;;2.30;96396.00;;;;8298954;28;20262;-83
2023/01/26 11:51:08;;;;;;;11.93;5.30;;;;;2.20;96387.00;;;;8287420;28;20197;-83
2023/01/26 11:55:22;;;;;;;14.40;6.30;;;;;2.30;96387.00;;;;8297730;28;20197;-81
2023/01/26 11:59:29;;;;;;;14.10;6.27;;;;;2.30;96391.00;;;;8298107;28;20484;-82
2023/01/26 12:03:41;;;;;;;14.17;5.90;;;;;2.40;96377.00;;;;8298718;28;20794;-83
2023/01/26 12:07:53;;;;;;;14.27;5.67;;;;;2.40;96381.00;;;;8299235;28;20223;-81
2023/01/26 12:12:04;;;;;;;13.77;6.33;;;;;2.50;96371.00;;;;8298647;28;20606;-81
2023/01/26 12:16:20;;;;;;;11.17;5.53;;;;;2.50;96373.00;;;;8298795;28;20196;-82
2023/01/26 12:20:30;;;;;;;10.23;5.13;;;;;2.60;96378.00;;;;8300544;28;20193;-83
2023/01/26 12:24:41;;;;;;;12.13;5.97;;;;;2.60;96376.00;;;;8298521;28;20270;-83
2023/01/26 12:29:11;;;;;;;13.03;6.60;;;;;2.50;96368.00;;;;8295639;28;20204;-83
2023/01/26 12:33:16;;;;;;;14.50;6.53;;;;;2.40;96374.00;;;;8299061;28;20194;-82
2023/01/26 12:37:46;;;;;;;12.53;6.50;;;;;2.30;96364.00;;;;8297966;28;20192;-85
2023/01/26 12:42:03;;;;;;;11.90;6.37;;;;;2.30;96369.00;;;;8298078;28;20196;-86
2023/01/26 12:46:08;;;;;;;12.53;6.50;;;;;2.30;96358.00;;;;8298409;28;20254;-85
2023/01/26 12:50:25;;;;;;;17.40;6.47;;;;;2.30;96351.00;;;;8296545;28;20195;-84
2023/01/26 12:54:38;;;;;;;12.60;6.70;;;;;2.30;96339.00;;;;8298125;28;20205;-87
2023/01/26 12:58:45;;;;;;;18.67;7.17;;;;;2.30;96343.00;;;;8298003;28;20551;-83
2023/01/26 13:02:54;;;;;;;13.17;6.63;;;;;2.20;96339.00;;;;8297888;28;20235;-83
2023/01/26 13:07:24;;;;;;;13.43;6.83;;;;;2.10;96343.00;;;;8296968;28;20248;-83
2023/01/26 13:11:45;;;;;;;16.93;6.60;;;;;2.10;96327.00;;;;8301434;28;20200;-83
2023/01/26 13:16:28;;;;;;;18.93;8.13;;;;;2.00;96332.00;;;;8302766;28;20271;-83
2023/01/26 13:20:50;;;;;;;16.53;6.93;;;;;1.90;96335.00;;;;8303645;28;20270;-82
2023/01/26 13:24:57;;;;;;;17.53;6.93;;;;;1.90;96332.00;;;;8303488;28;20202;-82
2023/01/26 13:29:31;;;;;;;14.53;6.50;;;;;1.80;96331.00;;;;8303633;28;20238;-82
2023/01/26 13:33:41;;;;;;;17.13;7.30;;;;;1.90;96322.00;;;;8301499;28;20214;-82
2023/01/26 13:37:56;;;;;;;17.43;6.53;;;;;1.90;96331.00;;;;8300572;28;20216;-85
2023/01/26 13:41:59;;;;;;;17.43;6.83;;;;;1.90;96337.00;;;;8303238;28;20201;-88
2023/01/26 13:46:10;;;;;;;15.83;7.17;;;;;2.00;96322.00;;;;8301597;28;20232;-91
2023/01/26 13:50:37;;;;;;;16.57;6.83;;;;;2.00;96324.00;;;;8302910;28;20275;-90
2023/01/26 13:54:42;;;;;;;20.10;7.63;;;;;2.00;96318.00;;;;8306200;28;20586;-92
2023/01/26 13:58:47;;;;;;;15.73;6.80;;;;;2.00;96332.00;;;;8302760;28;20202;-92
2023/01/26 14:02:51;;;;;;;14.80;6.20;;;;;1.90;96328.00;;;;8301948;28;20219;-89
2023/01/26 14:07:01;;;;;;;13.50;6.17;;;;;1.90;96322.00;;;;8302257;28;20223;-88
2023/01/26 14:11:15;;;;;;;13.93;6.30;;;;;1.80;96327.00;;;;8303071;28;20192;-90
2023/01/26 14:15:23;;;;;;;21.73;10.63;;;;;1.80;96313.00;;;;8301489;28;20201;-87
2023/01/26 14:19:28;;;;;;;209.47;82.20;;;;;2.00;96321.00;;;;8302330;28;20542;-86
2023/01/26 14:23:37;;;;;;;14.50;7.07;;;;;2.20;96325.00;;;;8301455;28;20184;-84
2023/01/26 14:27:42;;;;;;;12.97;6.40;;;;;2.20;96326.00;;;;8302113;28;20259;-80
2023/01/26 14:31:55;;;;;;;10.60;5.83;;;;;2.30;96332.00;;;;8299259;28;20208;-80
2023/01/26 14:36:00;;;;;;;14.07;6.57;;;;;2.30;96334.00;;;;8300048;28;20238;-79
2023/01/26 14:40:20;;;;;;;11.60;5.40;;;;;2.30;96333.00;;;;8299577;28;20236;-82
2023/01/26 14:44:24;;;;;;;11.03;5.60;;;;;2.40;96328.00;;;;8300510;28;20291;-81
2023/01/26 14:48:38;;;;;;;25.13;16.77;;;;;2.50;96328.00;;;;8301175;28;20224;-80
2023/01/26 14:52:45;;;;;;;12.93;8.07;;;;;2.40;96328.00;;;;8301006;28;20194;-81
2023/01/26 14:56:53;;;;;;;11.53;6.10;;;;;2.50;96332.00;;;;8299923;28;20201;-80
2023/01/26 15:00:57;;;;;;;11.30;6.00;;;;;2.40;96337.00;;;;8300592;28;20193;-80
2023/01/26 15:05:09;;;;;;;11.30;5.63;;;;;2.40;96341.00;;;;8301299;28;20238;-80
2023/01/26 15:09:26;;;;;;;14.03;7.00;;;;;2.20;96340.00;;;;8300207;28;20221;-81
2023/01/26 15:13:31;;;;;;;12.77;6.40;;;;;2.10;96348.00;;;;8300581;28;20542;-80
2023/01/26 15:17:39;;;;;;;10.63;6.47;;;;;2.00;96347.00;;;;8297661;28;20252;-79
2023/01/26 15:21:43;;;;;;;9.87;5.50;;;;;2.00;96339.00;;;;8293987;28;20197;-79
2023/01/26 15:25:47;;;;;;;10.67;5.83;;;;;2.00;96345.00;;;;8300492;28;20250;-82
2023/01/26 15:29:57;;;;;;;13.13;6.33;;;;;2.00;96350.00;;;;8299297;28;20586;-81
2023/01/26 15:34:05;;;;;;;12.27;6.00;;;;;1.90;96356.00;;;;8299282;28;20454;-81
2023/01/26 15:38:10;;;;;;;12.57;5.77;;;;;1.90;96358.00;;;;8300348;28;20193;-78
2023/01/26 15:42:16;;;;;;;12.70;6.43;;;;;1.90;96357.00;;;;8296086;28;20261;-82
2023/01/26 15:46:26;;;;;;;12.23;5.80;;;;;1.80;96358.00;;;;8298897;28;20326;-82
2023/01/26 15:50:29;;;;;;;11.10;5.70;;;;;1.90;96362.00;;;;8298674;28;20243;-82
2023/01/26 15:54:32;;;;;;;11.93;5.80;;;;;1.80;96364.00;;;;8298302;28;20191;-81
2023/01/26 15:58:39;;;;;;;11.07;6.13;;;;;1.80;96369.00;;;;8298347;28;20196;-82
2023/01/26 16:02:44;;;;;;;14.50;5.97;;;;;1.70;96362.00;;;;8298604;28;20686;-82
2023/01/26 16:06:47;;;;;;;12.40;6.00;;;;;1.70;96365.00;;;;8298455;28;20222;-81
2023/01/26 16:10:55;;;;;;;12.40;5.77;;;;;1.80;96356.00;;;;8296596;28;20199;-80
2023/01/26 16:14:59;;;;;;;11.90;6.57;;;;;1.70;96362.00;;;;8297357;28;20201;-80
2023/01/26 16:19:03;;;;;;;11.20;5.87;;;;;1.80;96368.00;;;;8298451;28;20208;-83
2023/01/26 16:23:17;;;;;;;11.23;6.00;;;;;1.80;96370.00;;;;8298502;28;20652;-78
2023/01/26 16:27:21;;;;;;;15.87;6.70;;;;;1.80;96368.00;;;;8297137;28;20567;-77
2023/01/26 16:31:33;;;;;;;13.27;6.50;;;;;1.80;96370.00;;;;8298502;28;20202;-78
2023/01/26 16:35:38;;;;;;;14.10;6.53;;;;;1.70;96355.00;;;;8298472;28;20476;-78
2023/01/26 16:39:41;;;;;;;14.23;6.60;;;;;1.80;96357.00;;;;8299144;28;20614;-79
2023/01/26 16:43:44;;;;;;;13.63;6.37;;;;;1.80;96364.00;;;;8297954;28;20262;-78
2023/01/26 16:47:50;;;;;;;15.00;8.50;;;;;1.70;96365.00;;;;8304097;28;20279;-78
2023/01/26 16:51:54;;;;;;;14.10;7.33;;;;;1.70;96364.00;;;;8302021;28;20245;-79
2023/01/26 16:56:00;;;;;;;12.40;6.43;;;;;1.60;96368.00;;;;8303230;28;20246;-81
2023/01/26 17:00:06;;;;;;;12.50;7.33;;;;;1.60;96379.00;;;;8304417;28;20199;-81
2023/01/26 17:04:13;;;;;;;12.93;6.50;;;;;1.60;96370.00;;;;8304408;28;20227;-83
2023/01/26 17:08:17;;;;;;;12.57;6.17;;;;;1.60;96365.00;;;;8304101;28;20219;-83
2023/01/26 17:12:28;;;;;;;11.20;5.50;;;;;1.60;96358.00;;;;8303985;28;20200;-83
2023/01/26 17:16:33;;;;;;;21.07;8.87;;;;;1.60;96357.00;;;;8304472;28;20257;-83
2023/01/26 17:20:40;;;;;;;11.40;6.03;;;;;1.60;96346.00;;;;8303241;28;20236;-83
2023/01/26 17:24:44;;;;;;;11.67;6.07;;;;;1.60;96346.00;;;;8303114;28;20278;-83
2023/01/26 17:28:55;;;;;;;15.70;7.00;;;;;1.60;96355.00;;;;8301409;28;20232;-84
2023/01/26 17:33:00;;;;;;;13.73;6.97;;;;;1.60;96357.00;;;;8303710;28;20199;-83
2023/01/26 17:37:04;;;;;;;14.13;6.97;;;;;1.60;96348.00;;;;8302672;28;20198;-83
2023/01/26 17:41:10;;;;;;;14.87;7.20;;;;;1.60;96357.00;;;;8301107;28;20559;-84
2023/01/26 17:45:16;;;;;;;14.90;7.13;;;;;1.60;96355.00;;;;8303647;28;20203;-84
2023/01/26 17:49:26;;;;;;;15.87;7.50;;;;;1.60;96358.00;;;;8302446;28;20283;-83
2023/01/26 17:53:29;;;;;;;14.03;7.03;;;;;1.50;96363.00;;;;8302973;28;20236;-83
2023/01/26 17:57:36;;;;;;;14.43;7.03;;;;;1.40;96362.00;;;;8302119;28;20208;-83
2023/01/26 18:01:39;;;;;;;15.63;7.87;;;;;1.40;96371.00;;;;8303535;28;20236;-83
2023/01/26 18:05:53;;;;;;;17.37;6.90;;;;;1.40;96365.00;;;;8301914;28;20204;-83
2023/01/26 18:09:56;;;;;;;17.03;7.33;;;;;1.40;96364.00;;;;8302796;28;20223;-84
2023/01/26 18:14:04;;;;;;;14.43;6.70;;;;;1.40;96366.00;;;;8302734;28;20712;-83
2023/01/26 18:18:07;;;;;;;18.83;7.20;;;;;1.50;96357.00;;;;8301426;28;20234;-84
2023/01/26 18:22:13;;;;;;;19.07;7.77;;;;;1.50;96359.00;;;;8303155;28;20513;-84
2023/01/26 18:26:19;;;;;;;20.33;8.70;;;;;1.60;96365.00;;;;8301968;28;20190;-83
2023/01/26 18:30:26;;;;;;;22.17;8.10;;;;;1.70;96360.00;;;;8302640;28;20232;-84
2023/01/26 18:34:29;;;;;;;15.87;8.27;;;;;1.60;96362.00;;;;8302164;28;20264;-83
2023/01/26 18:38:32;;;;;;;25.17;9.40;;;;;1.50;96361.00;;;;8302030;28;20195;-83
2023/01/26 18:42:41;;;;;;;21.53;9.47;;;;;1.50;96369.00;;;;8302143;28;20208;-83
2023/01/26 18:46:47;;;;;;;16.60;7.77;;;;;1.50;96363.00;;;;8300744;28;20196;-83
2023/01/26 18:50:52;;;;;;;21.63;8.33;;;;;1.50;96364.00;;;;8300077;28;20194;-83
2023/01/26 18:54:55;;;;;;;18.10;7.83;;;;;1.40;96367.00;;;;8300930;28;20701;-84
2023/01/26 18:58:59;;;;;;;19.90;8.10;;;;;1.40;96383.00;;;;8300833;28;20195;-82
2023/01/26 19:03:04;;;;;;;19.20;8.83;;;;;1.30;96369.00;;;;8302099;28;20226;-85
2023/01/26 19:07:09;;;;;;;21.00;8.77;;;;;1.30;96371.00;;;;8299965;28;20308;-80
2023/01/26 19:11:13;;;;;;;26.50;9.40;;;;;1.30;96363.00;;;;8300898;28;20195;-83
2023/01/26 19:15:16;;;;;;;21.73;9.87;;;;;1.30;96360.00;;;;8301110;28;20205;-84
2023/01/26 19:19:24;;;;;;;24.30;9.53;;;;;1.40;96355.00;;;;8289495;28;20265;-82
2023/01/26 19:23:28;;;;;;;24.60;9.93;;;;;1.40;96354.00;;;;8299629;28;20637;-83
2023/01/26 19:27:31;;;;;;;26.13;9.77;;;;;1.30;96347.00;;;;8300478;28;20603;-86
2023/01/26 19:31:35;;;;;;;24.00;9.37;;;;;1.30;96355.00;;;;8301089;28;20196;-86
2023/01/26 19:35:42;;;;;;;25.40;9.73;;;;;1.30;96358.00;;;;8298885;28;20647;-90
2023/01/26 19:39:45;;;;;;;26.23;10.83;;;;;1.40;96352.00;;;;8294562;28;20536;-87
2023/01/26 19:43:50;;;;;;;20.13;9.17;;;;;1.40;96358.00;;;;8300148;28;20210;-88
2023/01/26 19:47:57;;;;;;;30.53;10.37;;;;;1.50;96362.00;;;;8299766;28;20623;-90
2023/01/26 19:52:01;;;;;;;24.70;9.90;;;;;1.50;96356.00;;;;8299690;28;20200;-91
2023/01/26 19:56:06;;;;;;;29.07;10.07;;;;;1.50;96349.00;;;;8300288;28;20243;-91
2023/01/26 20:00:11;;;;;;;24.97;9.93;;;;;1.50;96351.00;;;;8299658;28;20199;-90
2023/01/26 20:04:15;;;;;;;25.80;10.13;;;;;1.40;96361.00;;;;8299952;28;20228;-89
2023/01/26 20:08:22;;;;;;;30.27;10.00;;;;;1.40;96361.00;;;;8301815;28;20229;-91
2023/01/26 20:12:25;;;;;;;26.60;10.53;;;;;1.40;96362.00;;;;8300615;28;20645;-89
2023/01/26 20:16:30;;;;;;;23.43;10.00;;;;;1.40;96362.00;;;;8299051;28;20202;-84
2023/01/26 20:20:36;;;;;;;30.10;9.73;;;;;1.40;96380.00;;;;8303098;28;20292;-83
2023/01/26 20:24:41;;;;;;;23.83;9.00;;;;;1.50;96363.00;;;;8304742;28;20238;-82
2023/01/26 20:28:45;;;;;;;22.93;8.67;;;;;1.50;96368.00;;;;8306135;28;20219;-85
2023/01/26 20:32:53;;;;;;;29.17;9.47;;;;;1.60;96361.00;;;;8305507;28;20194;-85
2023/01/26 20:36:59;;;;;;;28.87;9.67;;;;;1.60;96365.00;;;;8302072;28;20247;-83
2023/01/26 20:41:07;;;;;;;27.90;9.47;;;;;1.60;96370.00;;;;8305168;28;20192;-85
2023/01/26 20:45:10;;;;;;;26.83;9.60;;;;;1.60;96362.00;;;;8304522;28;20238;-82
2023/01/26 20:49:17;;;;;;;26.13;9.53;;;;;1.60;96354.00;;;;8304672;28;20283;-82
2023/01/26 20:53:22;;;;;;;26.47;9.57;;;;;1.60;96356.00;;;;8305444;28;20197;-80
2023/01/26 20:57:27;;;;;;;27.20;10.17;;;;;1.50;96368.00;;;;8302826;28;20586;-80
2023/01/26 21:01:32;;;;;;;30.23;9.93;;;;;1.50;96363.00;;;;8303262;28;20230;-79
2023/01/26 21:05:35;;;;;;;31.00;8.70;;;;;1.40;96359.00;;;;8303940;28;20633;-80
2023/01/26 21:09:41;;;;;;;22.10;8.90;;;;;1.40;96365.00;;;;8303879;28;20223;-79